sensor_id;sensor_type;location;lat;lon;timestamp;P1;durP1;ratioP1;P2;durP2;ratioP2
19903;SDS011;10114;50.970;4.962;2023-04-03T00:00:50;9.57;;;4.13;;
19903;SDS011;10114;50.970;4.962;2023-04-03T00:03:16;7.47;;;3.55;;
19903;SDS011;10114;50.970;4.962;2023-04-03T00:05:43;7.45;;;3.90;;
19903;SDS011;10114;50.970;4.962;2023-04-03T00:08:09;7.85;;;3.95;;
19903;SDS011;10114;50.970;4.962;2023-04-03T00:10:35;8.10;;;3.80;;
19903;SDS011;10114;50.970;4.962;2023-04-03T00:13:02;8.98;;;3.67;;
19903;SDS011;10114;50.970;4.962;2023-04-03T00:15:28;8.73;;;4.25;;
19903;SDS011;10114;50.970;4.962;2023-04-03T00:17:54;7.40;;;3.60;;
19903;SDS011;10114;50.970;4.962;2023-04-03T00:20:20;11.20;;;4.50;;
19903;SDS011;10114;50.970;4.962;2023-04-03T00:22:46;8.93;;;3.72;;
19903;SDS011;10114;50.970;4.962;2023-04-03T00:25:12;7.80;;;4.00;;
19903;SDS011;10114;50.970;4.962;2023-04-03T00:27:39;8.40;;;4.00;;
19903;SDS011;10114;50.970;4.962;2023-04-03T00:30:05;8.63;;;3.70;;
19903;SDS011;10114;50.970;4.962;2023-04-03T00:32:32;9.20;;;3.97;;
19903;SDS011;10114;50.970;4.962;2023-04-03T00:34:58;6.90;;;3.58;;
19903;SDS011;10114;50.970;4.962;2023-04-03T00:37:24;9.07;;;3.78;;
19903;SDS011;10114;50.970;4.962;2023-04-03T00:39:50;8.52;;;3.70;;
19903;SDS011;10114;50.970;4.962;2023-04-03T00:42:16;7.95;;;3.55;;
19903;SDS011;10114;50.970;4.962;2023-04-03T00:47:10;9.38;;;3.60;;
19903;SDS011;10114;50.970;4.962;2023-04-03T00:49:37;11.00;;;4.15;;
19903;SDS011;10114;50.970;4.962;2023-04-03T00:52:04;10.20;;;4.15;;
19903;SDS011;10114;50.970;4.962;2023-04-03T00:54:31;9.20;;;3.75;;
19903;SDS011;10114;50.970;4.962;2023-04-03T00:56:58;8.32;;;4.00;;
19903;SDS011;10114;50.970;4.962;2023-04-03T00:59:25;7.07;;;3.80;;
19903;SDS011;10114;50.970;4.962;2023-04-03T01:01:53;8.35;;;4.13;;
19903;SDS011;10114;50.970;4.962;2023-04-03T01:04:30;9.82;;;3.55;;
19903;SDS011;10114;50.970;4.962;2023-04-03T01:06:58;11.02;;;4.07;;
19903;SDS011;10114;50.970;4.962;2023-04-03T01:09:25;9.20;;;4.35;;
19903;SDS011;10114;50.970;4.962;2023-04-03T01:11:51;7.00;;;3.97;;
19903;SDS011;10114;50.970;4.962;2023-04-03T01:14:17;7.72;;;3.75;;
19903;SDS011;10114;50.970;4.962;2023-04-03T01:16:51;9.73;;;3.83;;
19903;SDS011;10114;50.970;4.962;2023-04-03T01:19:17;8.07;;;4.30;;
19903;SDS011;10114;50.970;4.962;2023-04-03T01:22:17;8.75;;;4.85;;
19903;SDS011;10114;50.970;4.962;2023-04-03T01:24:36;12.02;;;4.55;;
19903;SDS011;10114;50.970;4.962;2023-04-03T01:27:05;7.88;;;4.90;;
19903;SDS011;10114;50.970;4.962;2023-04-03T01:29:31;6.90;;;4.07;;
19903;SDS011;10114;50.970;4.962;2023-04-03T01:31:58;10.60;;;4.70;;
19903;SDS011;10114;50.970;4.962;2023-04-03T01:34:25;8.93;;;4.20;;
19903;SDS011;10114;50.970;4.962;2023-04-03T01:36:51;6.75;;;4.07;;
19903;SDS011;10114;50.970;4.962;2023-04-03T01:39:17;10.73;;;4.20;;
19903;SDS011;10114;50.970;4.962;2023-04-03T01:41:43;9.68;;;4.10;;
19903;SDS011;10114;50.970;4.962;2023-04-03T01:44:10;7.15;;;4.30;;
19903;SDS011;10114;50.970;4.962;2023-04-03T01:46:36;9.98;;;4.60;;
19903;SDS011;10114;50.970;4.962;2023-04-03T01:49:02;10.43;;;4.75;;
19903;SDS011;10114;50.970;4.962;2023-04-03T01:51:29;8.95;;;4.75;;
19903;SDS011;10114;50.970;4.962;2023-04-03T01:53:55;12.30;;;5.15;;
19903;SDS011;10114;50.970;4.962;2023-04-03T01:56:21;8.43;;;4.38;;
19903;SDS011;10114;50.970;4.962;2023-04-03T01:58:47;9.20;;;5.07;;
19903;SDS011;10114;50.970;4.962;2023-04-03T02:01:13;9.60;;;4.78;;
19903;SDS011;10114;50.970;4.962;2023-04-03T02:03:40;8.43;;;4.70;;
19903;SDS011;10114;50.970;4.962;2023-04-03T02:06:06;10.45;;;5.10;;
19903;SDS011;10114;50.970;4.962;2023-04-03T02:08:32;10.25;;;5.07;;
19903;SDS011;10114;50.970;4.962;2023-04-03T02:10:58;9.63;;;4.50;;
19903;SDS011;10114;50.970;4.962;2023-04-03T02:13:24;10.63;;;4.93;;
19903;SDS011;10114;50.970;4.962;2023-04-03T02:15:50;11.73;;;4.90;;
19903;SDS011;10114;50.970;4.962;2023-04-03T02:18:16;7.70;;;4.68;;
19903;SDS011;10114;50.970;4.962;2023-04-03T02:20:43;9.13;;;4.55;;
19903;SDS011;10114;50.970;4.962;2023-04-03T02:23:09;12.45;;;5.43;;
19903;SDS011;10114;50.970;4.962;2023-04-03T02:25:35;7.70;;;4.57;;
19903;SDS011;10114;50.970;4.962;2023-04-03T02:28:01;8.60;;;4.70;;
19903;SDS011;10114;50.970;4.962;2023-04-03T02:30:27;11.65;;;4.80;;
19903;SDS011;10114;50.970;4.962;2023-04-03T02:32:53;9.90;;;4.72;;
19903;SDS011;10114;50.970;4.962;2023-04-03T02:35:21;9.35;;;5.10;;
19903;SDS011;10114;50.970;4.962;2023-04-03T02:37:47;11.50;;;5.05;;
19903;SDS011;10114;50.970;4.962;2023-04-03T02:40:13;11.65;;;5.15;;
19903;SDS011;10114;50.970;4.962;2023-04-03T02:42:39;10.27;;;4.97;;
19903;SDS011;10114;50.970;4.962;2023-04-03T02:45:05;9.38;;;4.68;;
19903;SDS011;10114;50.970;4.962;2023-04-03T02:47:31;9.48;;;4.78;;
19903;SDS011;10114;50.970;4.962;2023-04-03T02:49:57;9.85;;;5.28;;
19903;SDS011;10114;50.970;4.962;2023-04-03T02:52:23;7.95;;;4.60;;
19903;SDS011;10114;50.970;4.962;2023-04-03T02:54:50;9.55;;;5.15;;
19903;SDS011;10114;50.970;4.962;2023-04-03T02:57:16;10.20;;;5.38;;
19903;SDS011;10114;50.970;4.962;2023-04-03T02:59:42;10.50;;;5.03;;
19903;SDS011;10114;50.970;4.962;2023-04-03T03:02:09;10.05;;;5.50;;
19903;SDS011;10114;50.970;4.962;2023-04-03T03:04:35;11.85;;;5.10;;
19903;SDS011;10114;50.970;4.962;2023-04-03T03:07:02;10.00;;;5.90;;
19903;SDS011;10114;50.970;4.962;2023-04-03T03:09:28;10.63;;;5.20;;
19903;SDS011;10114;50.970;4.962;2023-04-03T03:11:54;15.10;;;5.78;;
19903;SDS011;10114;50.970;4.962;2023-04-03T03:14:20;9.80;;;5.63;;
19903;SDS011;10114;50.970;4.962;2023-04-03T03:16:46;12.43;;;6.07;;
19903;SDS011;10114;50.970;4.962;2023-04-03T03:19:12;12.07;;;5.85;;
19903;SDS011;10114;50.970;4.962;2023-04-03T03:21:38;11.98;;;5.90;;
19903;SDS011;10114;50.970;4.962;2023-04-03T03:24:04;11.57;;;6.07;;
19903;SDS011;10114;50.970;4.962;2023-04-03T03:26:30;17.08;;;6.70;;
19903;SDS011;10114;50.970;4.962;2023-04-03T03:28:57;12.32;;;6.50;;
19903;SDS011;10114;50.970;4.962;2023-04-03T03:31:23;11.73;;;6.50;;
19903;SDS011;10114;50.970;4.962;2023-04-03T03:33:49;13.63;;;6.82;;
19903;SDS011;10114;50.970;4.962;2023-04-03T03:36:15;11.65;;;6.57;;
19903;SDS011;10114;50.970;4.962;2023-04-03T03:38:41;14.68;;;7.68;;
19903;SDS011;10114;50.970;4.962;2023-04-03T03:41:07;14.65;;;7.28;;
19903;SDS011;10114;50.970;4.962;2023-04-03T03:43:33;13.07;;;7.57;;
19903;SDS011;10114;50.970;4.962;2023-04-03T03:46:00;13.10;;;7.57;;
19903;SDS011;10114;50.970;4.962;2023-04-03T03:48:26;16.63;;;8.45;;
19903;SDS011;10114;50.970;4.962;2023-04-03T03:50:52;14.85;;;8.82;;
19903;SDS011;10114;50.970;4.962;2023-04-03T03:53:18;14.18;;;8.38;;
19903;SDS011;10114;50.970;4.962;2023-04-03T03:55:44;15.73;;;9.02;;
19903;SDS011;10114;50.970;4.962;2023-04-03T03:58:10;15.02;;;8.15;;
19903;SDS011;10114;50.970;4.962;2023-04-03T04:00:36;16.02;;;8.35;;
19903;SDS011;10114;50.970;4.962;2023-04-03T04:03:02;18.90;;;8.60;;
19903;SDS011;10114;50.970;4.962;2023-04-03T04:05:28;15.73;;;8.23;;
19903;SDS011;10114;50.970;4.962;2023-04-03T04:07:55;13.13;;;7.70;;
19903;SDS011;10114;50.970;4.962;2023-04-03T04:10:21;18.73;;;8.55;;
19903;SDS011;10114;50.970;4.962;2023-04-03T04:12:48;15.25;;;8.68;;
19903;SDS011;10114;50.970;4.962;2023-04-03T04:15:14;17.63;;;9.13;;
19903;SDS011;10114;50.970;4.962;2023-04-03T04:17:40;17.52;;;9.07;;
19903;SDS011;10114;50.970;4.962;2023-04-03T04:20:06;19.75;;;8.75;;
19903;SDS011;10114;50.970;4.962;2023-04-03T04:22:33;18.58;;;9.98;;
19903;SDS011;10114;50.970;4.962;2023-04-03T04:24:59;18.27;;;9.88;;
19903;SDS011;10114;50.970;4.962;2023-04-03T04:27:25;18.10;;;9.88;;
19903;SDS011;10114;50.970;4.962;2023-04-03T04:29:51;14.43;;;9.23;;
19903;SDS011;10114;50.970;4.962;2023-04-03T04:32:17;21.15;;;10.23;;
19903;SDS011;10114;50.970;4.962;2023-04-03T04:34:43;17.17;;;8.90;;
19903;SDS011;10114;50.970;4.962;2023-04-03T04:37:09;19.67;;;9.95;;
19903;SDS011;10114;50.970;4.962;2023-04-03T04:39:35;17.17;;;9.30;;
19903;SDS011;10114;50.970;4.962;2023-04-03T04:42:01;19.77;;;9.48;;
19903;SDS011;10114;50.970;4.962;2023-04-03T04:44:27;16.73;;;10.02;;
19903;SDS011;10114;50.970;4.962;2023-04-03T04:46:53;16.30;;;9.30;;
19903;SDS011;10114;50.970;4.962;2023-04-03T04:49:19;17.95;;;9.27;;
19903;SDS011;10114;50.970;4.962;2023-04-03T04:51:45;19.30;;;9.73;;
19903;SDS011;10114;50.970;4.962;2023-04-03T04:54:11;19.27;;;10.23;;
19903;SDS011;10114;50.970;4.962;2023-04-03T04:56:37;16.83;;;9.25;;
19903;SDS011;10114;50.970;4.962;2023-04-03T04:59:03;16.35;;;9.23;;
19903;SDS011;10114;50.970;4.962;2023-04-03T05:01:29;18.17;;;9.55;;
19903;SDS011;10114;50.970;4.962;2023-04-03T05:03:56;17.67;;;9.15;;
19903;SDS011;10114;50.970;4.962;2023-04-03T05:06:22;20.87;;;12.07;;
19903;SDS011;10114;50.970;4.962;2023-04-03T05:08:48;18.45;;;10.63;;
19903;SDS011;10114;50.970;4.962;2023-04-03T05:11:14;15.55;;;9.57;;
19903;SDS011;10114;50.970;4.962;2023-04-03T05:13:40;20.88;;;10.30;;
19903;SDS011;10114;50.970;4.962;2023-04-03T05:16:06;21.13;;;10.98;;
19903;SDS011;10114;50.970;4.962;2023-04-03T05:18:32;18.60;;;9.40;;
19903;SDS011;10114;50.970;4.962;2023-04-03T05:20:58;18.92;;;9.75;;
19903;SDS011;10114;50.970;4.962;2023-04-03T05:23:24;22.40;;;10.50;;
19903;SDS011;10114;50.970;4.962;2023-04-03T05:25:50;16.70;;;9.73;;
19903;SDS011;10114;50.970;4.962;2023-04-03T05:28:16;18.17;;;9.90;;
19903;SDS011;10114;50.970;4.962;2023-04-03T05:30:42;20.90;;;10.68;;
19903;SDS011;10114;50.970;4.962;2023-04-03T05:33:08;16.63;;;10.50;;
19903;SDS011;10114;50.970;4.962;2023-04-03T05:35:35;19.88;;;10.15;;
19903;SDS011;10114;50.970;4.962;2023-04-03T05:38:04;17.30;;;10.52;;
19903;SDS011;10114;50.970;4.962;2023-04-03T05:40:30;20.23;;;10.18;;
19903;SDS011;10114;50.970;4.962;2023-04-03T05:42:56;16.48;;;9.70;;
19903;SDS011;10114;50.970;4.962;2023-04-03T05:45:22;19.42;;;10.80;;
19903;SDS011;10114;50.970;4.962;2023-04-03T05:47:48;14.80;;;9.07;;
19903;SDS011;10114;50.970;4.962;2023-04-03T05:50:14;22.48;;;10.15;;
19903;SDS011;10114;50.970;4.962;2023-04-03T05:52:42;20.05;;;10.70;;
19903;SDS011;10114;50.970;4.962;2023-04-03T05:55:08;17.15;;;10.52;;
19903;SDS011;10114;50.970;4.962;2023-04-03T05:57:35;16.90;;;10.70;;
19903;SDS011;10114;50.970;4.962;2023-04-03T06:00:01;20.48;;;10.13;;
19903;SDS011;10114;50.970;4.962;2023-04-03T06:02:27;20.98;;;10.30;;
19903;SDS011;10114;50.970;4.962;2023-04-03T06:04:53;20.00;;;10.32;;
19903;SDS011;10114;50.970;4.962;2023-04-03T06:07:20;18.05;;;10.00;;
19903;SDS011;10114;50.970;4.962;2023-04-03T06:09:47;12.50;;;6.95;;
19903;SDS011;10114;50.970;4.962;2023-04-03T06:12:14;17.98;;;9.52;;
19903;SDS011;10114;50.970;4.962;2023-04-03T06:14:40;13.75;;;7.45;;
19903;SDS011;10114;50.970;4.962;2023-04-03T06:17:06;20.65;;;8.50;;
19903;SDS011;10114;50.970;4.962;2023-04-03T06:19:34;16.27;;;9.80;;
19903;SDS011;10114;50.970;4.962;2023-04-03T06:22:00;13.95;;;8.98;;
19903;SDS011;10114;50.970;4.962;2023-04-03T06:24:26;17.10;;;9.15;;
19903;SDS011;10114;50.970;4.962;2023-04-03T06:26:52;18.00;;;8.90;;
19903;SDS011;10114;50.970;4.962;2023-04-03T06:29:19;15.38;;;8.73;;
19903;SDS011;10114;50.970;4.962;2023-04-03T06:31:45;14.13;;;8.38;;
19903;SDS011;10114;50.970;4.962;2023-04-03T06:34:12;14.00;;;5.75;;
19903;SDS011;10114;50.970;4.962;2023-04-03T06:36:38;15.38;;;8.23;;
19903;SDS011;10114;50.970;4.962;2023-04-03T06:39:05;15.50;;;8.30;;
19903;SDS011;10114;50.970;4.962;2023-04-03T06:41:32;14.07;;;8.07;;
19903;SDS011;10114;50.970;4.962;2023-04-03T06:43:58;11.98;;;6.75;;
19903;SDS011;10114;50.970;4.962;2023-04-03T06:46:25;15.25;;;7.22;;
19903;SDS011;10114;50.970;4.962;2023-04-03T06:48:51;12.13;;;7.15;;
19903;SDS011;10114;50.970;4.962;2023-04-03T06:51:21;12.98;;;5.47;;
19903;SDS011;10114;50.970;4.962;2023-04-03T06:53:48;13.88;;;6.57;;
19903;SDS011;10114;50.970;4.962;2023-04-03T06:56:14;9.65;;;5.28;;
19903;SDS011;10114;50.970;4.962;2023-04-03T06:58:41;9.57;;;5.43;;
19903;SDS011;10114;50.970;4.962;2023-04-03T07:01:08;8.65;;;4.00;;
19903;SDS011;10114;50.970;4.962;2023-04-03T07:03:35;11.20;;;5.25;;
19903;SDS011;10114;50.970;4.962;2023-04-03T07:06:01;11.07;;;4.95;;
19903;SDS011;10114;50.970;4.962;2023-04-03T07:08:27;10.13;;;4.45;;
19903;SDS011;10114;50.970;4.962;2023-04-03T07:10:54;6.13;;;3.15;;
19903;SDS011;10114;50.970;4.962;2023-04-03T07:13:20;10.70;;;5.03;;
19903;SDS011;10114;50.970;4.962;2023-04-03T07:15:46;12.75;;;5.32;;
19903;SDS011;10114;50.970;4.962;2023-04-03T07:18:13;12.63;;;5.45;;
19903;SDS011;10114;50.970;4.962;2023-04-03T07:20:39;9.63;;;4.45;;
19903;SDS011;10114;50.970;4.962;2023-04-03T07:23:05;11.35;;;4.57;;
19903;SDS011;10114;50.970;4.962;2023-04-03T07:25:31;6.28;;;3.35;;
19903;SDS011;10114;50.970;4.962;2023-04-03T07:27:58;10.00;;;4.20;;
19903;SDS011;10114;50.970;4.962;2023-04-03T07:30:24;11.45;;;4.07;;
19903;SDS011;10114;50.970;4.962;2023-04-03T07:32:51;8.45;;;4.53;;
19903;SDS011;10114;50.970;4.962;2023-04-03T07:35:17;14.50;;;4.50;;
19903;SDS011;10114;50.970;4.962;2023-04-03T07:37:43;12.27;;;4.60;;
19903;SDS011;10114;50.970;4.962;2023-04-03T07:40:10;13.52;;;5.07;;
19903;SDS011;10114;50.970;4.962;2023-04-03T07:42:36;7.65;;;3.30;;
19903;SDS011;10114;50.970;4.962;2023-04-03T07:45:02;10.30;;;2.83;;
19903;SDS011;10114;50.970;4.962;2023-04-03T07:47:29;9.13;;;3.67;;
19903;SDS011;10114;50.970;4.962;2023-04-03T07:49:55;9.30;;;3.90;;
19903;SDS011;10114;50.970;4.962;2023-04-03T07:52:22;6.95;;;4.05;;
19903;SDS011;10114;50.970;4.962;2023-04-03T07:54:48;7.25;;;3.38;;
19903;SDS011;10114;50.970;4.962;2023-04-03T07:57:14;10.02;;;4.15;;
19903;SDS011;10114;50.970;4.962;2023-04-03T07:59:41;7.93;;;3.75;;
19903;SDS011;10114;50.970;4.962;2023-04-03T08:02:11;10.10;;;3.60;;
19903;SDS011;10114;50.970;4.962;2023-04-03T08:04:37;9.45;;;3.30;;
19903;SDS011;10114;50.970;4.962;2023-04-03T08:07:03;10.07;;;3.50;;
19903;SDS011;10114;50.970;4.962;2023-04-03T08:09:30;11.50;;;3.67;;
19903;SDS011;10114;50.970;4.962;2023-04-03T08:11:57;6.80;;;2.40;;
19903;SDS011;10114;50.970;4.962;2023-04-03T08:14:23;12.43;;;3.53;;
19903;SDS011;10114;50.970;4.962;2023-04-03T08:16:49;12.70;;;3.05;;
19903;SDS011;10114;50.970;4.962;2023-04-03T08:19:16;8.45;;;2.80;;
19903;SDS011;10114;50.970;4.962;2023-04-03T08:21:43;7.35;;;2.20;;
19903;SDS011;10114;50.970;4.962;2023-04-03T08:24:10;9.50;;;3.30;;
19903;SDS011;10114;50.970;4.962;2023-04-03T08:26:36;5.65;;;2.80;;
19903;SDS011;10114;50.970;4.962;2023-04-03T08:29:03;8.48;;;3.03;;
19903;SDS011;10114;50.970;4.962;2023-04-03T08:31:29;9.13;;;3.00;;
19903;SDS011;10114;50.970;4.962;2023-04-03T08:33:56;8.60;;;2.55;;
19903;SDS011;10114;50.970;4.962;2023-04-03T08:36:24;6.68;;;2.03;;
19903;SDS011;10114;50.970;4.962;2023-04-03T08:38:51;6.43;;;3.17;;
19903;SDS011;10114;50.970;4.962;2023-04-03T08:49:11;5.13;;;2.05;;
19903;SDS011;10114;50.970;4.962;2023-04-03T08:51:39;6.22;;;2.05;;
19903;SDS011;10114;50.970;4.962;2023-04-03T08:54:14;7.07;;;2.53;;
19903;SDS011;10114;50.970;4.962;2023-04-03T08:56:40;10.23;;;1.85;;
19903;SDS011;10114;50.970;4.962;2023-04-03T08:59:10;4.03;;;2.08;;
19903;SDS011;10114;50.970;4.962;2023-04-03T09:01:38;6.38;;;2.30;;
19903;SDS011;10114;50.970;4.962;2023-04-03T09:04:12;6.80;;;2.30;;
19903;SDS011;10114;50.970;4.962;2023-04-03T09:06:39;4.78;;;1.85;;
19903;SDS011;10114;50.970;4.962;2023-04-03T09:14:02;5.60;;;2.90;;
19903;SDS011;10114;50.970;4.962;2023-04-03T09:21:51;8.77;;;2.83;;
19903;SDS011;10114;50.970;4.962;2023-04-03T09:24:18;8.43;;;2.30;;
19903;SDS011;10114;50.970;4.962;2023-04-03T09:26:55;8.07;;;2.30;;
19903;SDS011;10114;50.970;4.962;2023-04-03T09:29:24;6.40;;;2.45;;
19903;SDS011;10114;50.970;4.962;2023-04-03T09:31:52;7.28;;;1.83;;
19903;SDS011;10114;50.970;4.962;2023-04-03T09:39:26;5.03;;;2.00;;
19903;SDS011;10114;50.970;4.962;2023-04-03T09:41:57;6.10;;;1.98;;
19903;SDS011;10114;50.970;4.962;2023-04-03T09:44:33;3.67;;;1.27;;
19903;SDS011;10114;50.970;4.962;2023-04-03T09:47:17;5.93;;;1.80;;
19903;SDS011;10114;50.970;4.962;2023-04-03T09:49:43;7.28;;;1.70;;
19903;SDS011;10114;50.970;4.962;2023-04-03T09:52:25;6.05;;;1.40;;
19903;SDS011;10114;50.970;4.962;2023-04-03T09:54:51;4.72;;;1.42;;
19903;SDS011;10114;50.970;4.962;2023-04-03T09:57:18;3.40;;;1.23;;
19903;SDS011;10114;50.970;4.962;2023-04-03T09:59:56;5.47;;;1.50;;
19903;SDS011;10114;50.970;4.962;2023-04-03T10:02:28;3.50;;;1.42;;
19903;SDS011;10114;50.970;4.962;2023-04-03T10:04:56;4.82;;;1.33;;
19903;SDS011;10114;50.970;4.962;2023-04-03T10:09:58;2.10;;;0.90;;
19903;SDS011;10114;50.970;4.962;2023-04-03T10:12:25;5.63;;;1.20;;
19903;SDS011;10114;50.970;4.962;2023-04-03T10:19:47;8.80;;;1.55;;
19903;SDS011;10114;50.970;4.962;2023-04-03T10:22:18;5.30;;;1.65;;
19903;SDS011;10114;50.970;4.962;2023-04-03T10:24:52;4.18;;;1.45;;
19903;SDS011;10114;50.970;4.962;2023-04-03T10:27:32;2.70;;;1.02;;
19903;SDS011;10114;50.970;4.962;2023-04-03T10:32:40;4.07;;;1.45;;
19903;SDS011;10114;50.970;4.962;2023-04-03T10:42:52;5.72;;;1.60;;
19903;SDS011;10114;50.970;4.962;2023-04-03T10:45:24;8.15;;;1.30;;
19903;SDS011;10114;50.970;4.962;2023-04-03T10:53:00;3.20;;;1.08;;
19903;SDS011;10114;50.970;4.962;2023-04-03T10:55:34;3.95;;;1.30;;
19903;SDS011;10114;50.970;4.962;2023-04-03T10:58:02;3.72;;;1.30;;
19903;SDS011;10114;50.970;4.962;2023-04-03T11:01:02;1.63;;;0.77;;
19903;SDS011;10114;50.970;4.962;2023-04-03T11:03:29;5.38;;;0.90;;
19903;SDS011;10114;50.970;4.962;2023-04-03T11:05:56;4.72;;;1.00;;
19903;SDS011;10114;50.970;4.962;2023-04-03T11:11:00;2.47;;;0.75;;
19903;SDS011;10114;50.970;4.962;2023-04-03T11:16:02;3.85;;;1.00;;
19903;SDS011;10114;50.970;4.962;2023-04-03T11:18:41;4.85;;;1.08;;
19903;SDS011;10114;50.970;4.962;2023-04-03T11:21:15;2.10;;;0.90;;
19903;SDS011;10114;50.970;4.962;2023-04-03T11:23:42;2.20;;;0.60;;
19903;SDS011;10114;50.970;4.962;2023-04-03T11:26:13;3.25;;;1.30;;
19903;SDS011;10114;50.970;4.962;2023-04-03T11:28:39;3.40;;;1.30;;
19903;SDS011;10114;50.970;4.962;2023-04-03T11:36:44;3.35;;;0.90;;
19903;SDS011;10114;50.970;4.962;2023-04-03T11:38:46;3.40;;;1.10;;
19903;SDS011;10114;50.970;4.962;2023-04-03T11:41:12;4.03;;;1.25;;
19903;SDS011;10114;50.970;4.962;2023-04-03T11:43:55;4.32;;;1.45;;
19903;SDS011;10114;50.970;4.962;2023-04-03T11:46:22;2.63;;;1.08;;
19903;SDS011;10114;50.970;4.962;2023-04-03T11:48:49;4.20;;;1.13;;
19903;SDS011;10114;50.970;4.962;2023-04-03T11:53:54;4.20;;;1.10;;
19903;SDS011;10114;50.970;4.962;2023-04-03T12:01:44;3.95;;;1.23;;
19903;SDS011;10114;50.970;4.962;2023-04-03T12:04:11;6.20;;;0.88;;
19903;SDS011;10114;50.970;4.962;2023-04-03T12:09:22;4.22;;;1.00;;
19903;SDS011;10114;50.970;4.962;2023-04-03T12:11:48;5.03;;;1.02;;
19903;SDS011;10114;50.970;4.962;2023-04-03T12:14:16;9.27;;;1.40;;
19903;SDS011;10114;50.970;4.962;2023-04-03T12:16:43;3.17;;;1.20;;
19903;SDS011;10114;50.970;4.962;2023-04-03T12:32:00;4.30;;;1.05;;
19903;SDS011;10114;50.970;4.962;2023-04-03T12:45:43;3.03;;;0.98;;
19903;SDS011;10114;50.970;4.962;2023-04-03T12:48:17;2.95;;;1.00;;
19903;SDS011;10114;50.970;4.962;2023-04-03T12:50:45;4.25;;;1.00;;
19903;SDS011;10114;50.970;4.962;2023-04-03T12:53:16;4.43;;;1.10;;
19903;SDS011;10114;50.970;4.962;2023-04-03T12:55:43;3.70;;;1.17;;
19903;SDS011;10114;50.970;4.962;2023-04-03T12:58:43;3.75;;;0.85;;
19903;SDS011;10114;50.970;4.962;2023-04-03T13:01:03;2.42;;;0.75;;
19903;SDS011;10114;50.970;4.962;2023-04-03T13:03:29;3.47;;;0.85;;
19903;SDS011;10114;50.970;4.962;2023-04-03T13:05:57;4.90;;;1.80;;
19903;SDS011;10114;50.970;4.962;2023-04-03T13:08:24;6.20;;;1.20;;
19903;SDS011;10114;50.970;4.962;2023-04-03T13:11:09;3.90;;;1.10;;
19903;SDS011;10114;50.970;4.962;2023-04-03T13:13:37;5.50;;;1.10;;
19903;SDS011;10114;50.970;4.962;2023-04-03T13:16:08;2.25;;;0.80;;
19903;SDS011;10114;50.970;4.962;2023-04-03T13:18:35;2.55;;;0.82;;
19903;SDS011;10114;50.970;4.962;2023-04-03T13:23:27;3.28;;;1.10;;
19903;SDS011;10114;50.970;4.962;2023-04-03T13:25:53;2.35;;;0.77;;
19903;SDS011;10114;50.970;4.962;2023-04-03T13:28:21;2.33;;;0.82;;
19903;SDS011;10114;50.970;4.962;2023-04-03T13:30:59;5.20;;;1.38;;
19903;SDS011;10114;50.970;4.962;2023-04-03T13:33:28;2.63;;;0.98;;
19903;SDS011;10114;50.970;4.962;2023-04-03T13:35:57;4.72;;;1.10;;
19903;SDS011;10114;50.970;4.962;2023-04-03T13:38:26;2.47;;;0.75;;
19903;SDS011;10114;50.970;4.962;2023-04-03T13:40:55;3.13;;;1.20;;
19903;SDS011;10114;50.970;4.962;2023-04-03T13:43:24;3.65;;;1.38;;
19903;SDS011;10114;50.970;4.962;2023-04-03T13:45:58;2.72;;;0.75;;
19903;SDS011;10114;50.970;4.962;2023-04-03T13:48:25;3.20;;;1.25;;
19903;SDS011;10114;50.970;4.962;2023-04-03T13:53:20;5.05;;;1.02;;
19903;SDS011;10114;50.970;4.962;2023-04-03T14:01:24;3.33;;;0.95;;
19903;SDS011;10114;50.970;4.962;2023-04-03T14:06:17;4.38;;;1.20;;
19903;SDS011;10114;50.970;4.962;2023-04-03T14:08:44;3.67;;;1.10;;
19903;SDS011;10114;50.970;4.962;2023-04-03T14:11:20;3.40;;;1.10;;
19903;SDS011;10114;50.970;4.962;2023-04-03T14:13:47;6.25;;;1.42;;
19903;SDS011;10114;50.970;4.962;2023-04-03T14:16:24;3.08;;;1.00;;
19903;SDS011;10114;50.970;4.962;2023-04-03T14:18:52;5.93;;;1.67;;
19903;SDS011;10114;50.970;4.962;2023-04-03T14:21:19;4.78;;;1.17;;
19903;SDS011;10114;50.970;4.962;2023-04-03T14:23:46;6.65;;;1.48;;
19903;SDS011;10114;50.970;4.962;2023-04-03T14:26:17;3.85;;;1.50;;
19903;SDS011;10114;50.970;4.962;2023-04-03T14:28:44;3.50;;;1.35;;
19903;SDS011;10114;50.970;4.962;2023-04-03T14:31:11;6.35;;;1.55;;
19903;SDS011;10114;50.970;4.962;2023-04-03T14:33:37;4.35;;;1.40;;
19903;SDS011;10114;50.970;4.962;2023-04-03T14:36:25;4.13;;;1.42;;
19903;SDS011;10114;50.970;4.962;2023-04-03T14:38:51;3.53;;;1.52;;
19903;SDS011;10114;50.970;4.962;2023-04-03T14:41:18;3.85;;;1.35;;
19903;SDS011;10114;50.970;4.962;2023-04-03T14:43:46;2.50;;;1.10;;
19903;SDS011;10114;50.970;4.962;2023-04-03T14:48:47;4.78;;;1.38;;
19903;SDS011;10114;50.970;4.962;2023-04-03T14:51:14;6.80;;;1.65;;
19903;SDS011;10114;50.970;4.962;2023-04-03T14:53:41;3.38;;;1.52;;
19903;SDS011;10114;50.970;4.962;2023-04-03T14:56:11;5.00;;;1.52;;
19903;SDS011;10114;50.970;4.962;2023-04-03T14:58:37;6.53;;;1.67;;
19903;SDS011;10114;50.970;4.962;2023-04-03T15:01:03;3.47;;;1.33;;
19903;SDS011;10114;50.970;4.962;2023-04-03T15:03:29;4.53;;;1.58;;
19903;SDS011;10114;50.970;4.962;2023-04-03T15:05:55;5.65;;;1.50;;
19903;SDS011;10114;50.970;4.962;2023-04-03T15:08:23;3.65;;;1.55;;
19903;SDS011;10114;50.970;4.962;2023-04-03T15:10:50;7.70;;;2.00;;
19903;SDS011;10114;50.970;4.962;2023-04-03T15:13:17;5.03;;;1.33;;
19903;SDS011;10114;50.970;4.962;2023-04-03T15:15:44;5.45;;;1.40;;
19903;SDS011;10114;50.970;4.962;2023-04-03T15:18:15;3.13;;;1.42;;
19903;SDS011;10114;50.970;4.962;2023-04-03T15:20:43;4.97;;;1.70;;
19903;SDS011;10114;50.970;4.962;2023-04-03T15:23:12;5.20;;;1.40;;
19903;SDS011;10114;50.970;4.962;2023-04-03T15:25:41;3.92;;;1.60;;
19903;SDS011;10114;50.970;4.962;2023-04-03T15:28:08;5.95;;;1.90;;
19903;SDS011;10114;50.970;4.962;2023-04-03T15:30:35;6.10;;;1.65;;
19903;SDS011;10114;50.970;4.962;2023-04-03T15:33:02;3.85;;;1.30;;
19903;SDS011;10114;50.970;4.962;2023-04-03T15:35:28;3.60;;;1.42;;
19903;SDS011;10114;50.970;4.962;2023-04-03T15:37:54;6.00;;;1.55;;
19903;SDS011;10114;50.970;4.962;2023-04-03T15:40:20;5.88;;;1.73;;
19903;SDS011;10114;50.970;4.962;2023-04-03T15:42:46;6.65;;;1.60;;
19903;SDS011;10114;50.970;4.962;2023-04-03T15:45:12;6.90;;;1.73;;
19903;SDS011;10114;50.970;4.962;2023-04-03T15:47:38;4.82;;;1.17;;
19903;SDS011;10114;50.970;4.962;2023-04-03T15:50:05;5.00;;;1.35;;
19903;SDS011;10114;50.970;4.962;2023-04-03T15:52:32;4.18;;;1.40;;
19903;SDS011;10114;50.970;4.962;2023-04-03T15:54:58;5.07;;;1.48;;
19903;SDS011;10114;50.970;4.962;2023-04-03T15:57:24;4.20;;;1.85;;
19903;SDS011;10114;50.970;4.962;2023-04-03T15:59:52;3.45;;;1.52;;
19903;SDS011;10114;50.970;4.962;2023-04-03T16:02:18;6.95;;;1.42;;
19903;SDS011;10114;50.970;4.962;2023-04-03T16:04:44;6.95;;;1.55;;
19903;SDS011;10114;50.970;4.962;2023-04-03T16:07:10;5.18;;;1.10;;
19903;SDS011;10114;50.970;4.962;2023-04-03T16:09:36;5.10;;;1.60;;
19903;SDS011;10114;50.970;4.962;2023-04-03T16:12:02;3.00;;;1.13;;
19903;SDS011;10114;50.970;4.962;2023-04-03T16:14:29;4.07;;;1.67;;
19903;SDS011;10114;50.970;4.962;2023-04-03T16:16:55;4.07;;;1.30;;
19903;SDS011;10114;50.970;4.962;2023-04-03T16:19:22;6.05;;;1.55;;
19903;SDS011;10114;50.970;4.962;2023-04-03T16:21:48;6.68;;;1.70;;
19903;SDS011;10114;50.970;4.962;2023-04-03T16:24:14;6.25;;;1.58;;
19903;SDS011;10114;50.970;4.962;2023-04-03T16:26:40;6.05;;;1.40;;
19903;SDS011;10114;50.970;4.962;2023-04-03T16:29:06;6.00;;;1.75;;
19903;SDS011;10114;50.970;4.962;2023-04-03T16:31:32;7.95;;;1.77;;
19903;SDS011;10114;50.970;4.962;2023-04-03T16:33:59;2.60;;;1.10;;